createdAt,value
2018-07-28T08:28:42.618Z,21440.00
2018-07-28T09:20:34.238Z,43360.00
2018-07-28T09:21:31.718Z,37152.00
2018-07-28T09:22:31.826Z,33376.00
2018-07-28T09:23:31.711Z,34464.00
2018-07-28T09:24:31.662Z,35392.00
2018-07-28T09:25:31.754Z,32416.00
2018-07-28T09:26:32.352Z,31520.00
2018-07-28T09:27:31.801Z,33056.00
2018-07-28T09:28:31.715Z,53408.00
2018-07-28T09:29:36.255Z,75616.00
2018-07-28T09:30:31.896Z,49152.00
2018-07-28T09:31:31.859Z,53440.00
2018-07-28T09:32:34.164Z,62368.00
2018-07-28T09:35:25.596Z,41408.00
2018-07-28T09:36:27.162Z,79680.00
2018-07-28T09:37:27.365Z,33888.00
2018-07-28T09:38:25.426Z,33376.00
2018-07-28T09:39:28.384Z,31968.00
2018-07-28T09:40:27.248Z,29120.00
2018-07-28T09:41:28.243Z,32192.00
2018-07-28T09:42:27.188Z,51744.00
2018-07-28T09:43:27.142Z,32000.00
2018-07-28T09:44:27.035Z,40928.00
2018-07-28T09:45:27.065Z,44928.00
2018-07-28T09:46:27.032Z,53408.00
2018-07-28T09:47:26.996Z,62784.00
2018-07-28T09:48:27.149Z,51264.00
2018-07-28T09:49:25.732Z,43040.00
2018-07-28T09:50:27.261Z,42976.00
2018-07-28T09:51:27.661Z,43264.00
2018-07-28T09:52:25.799Z,45376.00
2018-07-28T09:54:15.730Z,34304.00
2018-07-28T09:55:39.868Z,31904.00
2018-07-28T09:56:16.806Z,46720.00
2018-07-28T09:57:16.903Z,26816.00
2018-07-28T09:58:16.930Z,25024.00
2018-07-28T09:59:17.643Z,24000.00
2018-07-28T10:00:18.150Z,23904.00
2018-07-28T10:01:18.935Z,24064.00
2018-07-28T10:02:51.539Z,24256.00
2018-07-28T10:03:16.834Z,24384.00
2018-07-28T10:04:18.476Z,24448.00
2018-07-28T10:05:16.869Z,24736.00
2018-07-28T10:06:16.606Z,25248.00
2018-07-28T10:07:16.575Z,25696.00
2018-07-28T10:08:16.603Z,26304.00
2018-07-28T10:09:16.630Z,26720.00
2018-07-28T10:10:16.570Z,27456.00
2018-07-28T10:11:16.676Z,27904.00
2018-07-28T10:12:17.544Z,27008.00
2018-07-28T10:13:16.513Z,26048.00
2018-07-28T10:14:16.520Z,25408.00
2018-07-28T10:15:17.569Z,24704.00
2018-07-28T10:16:17.081Z,23808.00
2018-07-28T10:17:16.574Z,22720.00
2018-07-28T10:18:14.921Z,21600.00
2018-07-28T10:19:16.645Z,21088.00
2018-07-28T10:20:16.595Z,21056.00
2018-07-28T10:21:17.600Z,21632.00
2018-07-28T10:22:16.842Z,22464.00
2018-07-28T10:23:17.614Z,23712.00
2018-07-28T10:24:14.846Z,25856.00
2018-07-28T10:25:17.618Z,29696.00
2018-07-28T10:26:16.841Z,50368.00
2018-07-28T10:27:16.663Z,56064.00
2018-07-28T10:28:16.744Z,70528.00
2018-07-28T10:29:16.629Z,78464.00
2018-07-28T10:30:16.906Z,42048.00
2018-07-28T10:31:16.677Z,35968.00
2018-07-28T10:32:16.710Z,37472.00
2018-07-28T10:33:16.572Z,31648.00
2018-07-28T10:34:16.903Z,27968.00
2018-07-28T10:35:16.593Z,26112.00
2018-07-28T10:36:16.853Z,26176.00
2018-07-28T10:37:16.731Z,30496.00
2018-07-28T10:38:15.710Z,37568.00
2018-07-28T10:39:16.152Z,35648.00
2018-07-28T10:40:16.108Z,36448.00
2018-07-28T10:41:16.225Z,46752.00
2018-07-28T10:42:16.162Z,98592.00
2018-07-28T10:43:14.581Z,35712.00
2018-07-28T10:44:16.559Z,31328.00
2018-07-28T10:45:17.072Z,31264.00
2018-07-28T10:46:15.539Z,31904.00
2018-07-28T10:47:17.147Z,33024.00
2018-07-28T10:48:17.022Z,34944.00
2018-07-28T10:49:15.459Z,35680.00
2018-07-28T10:50:16.124Z,34400.00
2018-07-28T10:51:16.063Z,98144.00
2018-07-28T10:52:16.005Z,44864.00
2018-07-28T10:53:16.008Z,64224.00
2018-07-28T10:54:17.007Z,59136.00
2018-07-28T10:55:22.176Z,36544.00
2018-07-28T10:56:16.248Z,46240.00
2018-07-28T10:57:16.250Z,61856.00
2018-07-28T10:58:16.627Z,73280.00
2018-07-28T10:59:15.050Z,113696.00
2018-07-28T11:00:17.059Z,92320.00
2018-07-28T11:01:16.043Z,54336.00
2018-07-28T11:02:16.092Z,46880.00
2018-07-28T11:03:17.092Z,42912.00
2018-07-28T11:04:16.042Z,39136.00
2018-07-28T11:05:16.056Z,39648.00
2018-07-28T11:06:16.073Z,38688.00
2018-07-28T11:07:16.082Z,37696.00
2018-07-28T11:08:16.044Z,36256.00
2018-07-28T11:09:16.112Z,34944.00
2018-07-28T11:10:14.201Z,33792.00
2018-07-28T11:11:17.057Z,32768.00
2018-07-28T11:12:16.047Z,31712.00
2018-07-28T11:13:16.053Z,30336.00
2018-07-28T11:14:17.213Z,28512.00
2018-07-28T11:15:16.094Z,25920.00
2018-07-28T11:16:16.087Z,23264.00
2018-07-28T11:17:16.134Z,22304.00
2018-07-28T11:18:16.055Z,23072.00
2018-07-28T11:19:16.052Z,24544.00
2018-07-28T11:20:17.154Z,26080.00
2018-07-28T11:21:16.061Z,28000.00
2018-07-28T11:22:15.089Z,30368.00
2018-07-28T11:23:18.588Z,35008.00
2018-07-28T11:24:14.138Z,56448.00
2018-07-28T11:26:35.960Z,48704.00
2018-07-28T11:27:36.698Z,43136.00
2018-07-28T11:28:37.715Z,39328.00
2018-07-28T11:29:35.959Z,41184.00
2018-07-28T11:30:37.064Z,36256.00
2018-07-28T11:31:36.351Z,35488.00
2018-07-28T11:32:34.745Z,34880.00
2018-07-28T11:33:37.499Z,34560.00
2018-07-28T11:34:36.444Z,34784.00
2018-07-28T11:35:34.635Z,35328.00
2018-07-28T11:36:36.440Z,36576.00
2018-07-28T11:37:36.430Z,37856.00
2018-07-28T11:38:36.400Z,35872.00
2018-07-28T11:39:36.402Z,33952.00
2018-07-28T11:40:36.612Z,34272.00
2018-07-28T11:43:31.105Z,35840.00
2018-07-28T11:44:31.819Z,32896.00
2018-07-28T11:45:33.328Z,29152.00
2018-07-28T11:46:31.645Z,26400.00
2018-07-28T11:47:31.703Z,24992.00
2018-07-28T11:48:31.704Z,24864.00
2018-07-28T11:49:31.637Z,25760.00
2018-07-28T11:50:31.707Z,28768.00
2018-07-28T11:51:31.655Z,37664.00
2018-07-28T11:52:31.984Z,48096.00
2018-07-28T11:53:31.704Z,43232.00
2018-07-28T11:54:31.653Z,44320.00
2018-07-28T11:55:29.972Z,50400.00
2018-07-28T11:56:34.874Z,54336.00
2018-07-28T11:57:31.665Z,41952.00
2018-07-28T11:58:31.948Z,37280.00
2018-07-28T11:59:31.828Z,34624.00
2018-07-28T12:00:31.696Z,31936.00
2018-07-28T12:01:32.781Z,29792.00
2018-07-28T12:02:32.687Z,29088.00
2018-07-28T12:03:31.892Z,29152.00
2018-07-28T12:04:41.654Z,30848.00
2018-07-28T12:05:30.154Z,32992.00
2018-07-28T12:06:29.964Z,33088.00
2018-07-28T12:07:31.065Z,33632.00
2018-07-28T12:08:29.696Z,36576.00
2018-07-28T12:09:31.148Z,37344.00
2018-07-28T12:10:34.830Z,37344.00
2018-07-28T12:11:33.709Z,36512.00
2018-07-28T12:12:33.144Z,35808.00
2018-07-28T12:13:31.412Z,35904.00
2018-07-28T12:14:31.430Z,35712.00
2018-07-28T12:15:31.184Z,34752.00
2018-07-28T12:16:29.643Z,35488.00
2018-07-28T12:17:35.273Z,37216.00
2018-07-28T12:18:31.215Z,44992.00
2018-07-28T12:19:31.205Z,46304.00
2018-07-28T12:20:29.651Z,45824.00
2018-07-28T12:21:31.164Z,60576.00
2018-07-28T12:22:33.003Z,58144.00
2018-07-28T12:23:29.573Z,43040.00
2018-07-28T12:24:32.378Z,37760.00
2018-07-28T12:25:31.272Z,36448.00
2018-07-28T12:26:31.195Z,35104.00
2018-07-28T12:27:31.192Z,35328.00
2018-07-28T12:28:31.333Z,39904.00
2018-07-28T12:29:31.250Z,32224.00
2018-07-28T12:30:31.218Z,33024.00
2018-07-28T12:31:31.206Z,34752.00
2018-07-28T12:32:31.164Z,30656.00
2018-07-28T12:33:31.187Z,29120.00
2018-07-28T12:34:31.323Z,26240.00
2018-07-28T12:35:32.243Z,27872.00
2018-07-28T12:36:29.346Z,28320.00
2018-07-28T12:37:31.278Z,26816.00
2018-07-28T12:38:31.187Z,25344.00
2018-07-28T12:39:31.220Z,24736.00
2018-07-28T12:40:31.215Z,24288.00
2018-07-28T12:41:31.167Z,23072.00
2018-07-28T12:42:31.184Z,21792.00
2018-07-28T12:43:31.183Z,21760.00
2018-07-28T12:44:32.435Z,22880.00
2018-07-28T12:45:32.744Z,24480.00
2018-07-28T12:46:31.506Z,25344.00
2018-07-28T12:47:31.235Z,26368.00
2018-07-28T12:48:31.362Z,27136.00
2018-07-28T12:49:31.268Z,28256.00
2018-07-28T12:50:31.423Z,28576.00
2018-07-28T12:51:31.211Z,27936.00
2018-07-28T12:52:30.393Z,27328.00
2018-07-28T12:53:31.223Z,26656.00
2018-07-28T12:54:30.735Z,25504.00
2018-07-28T12:55:31.066Z,24192.00
2018-07-28T12:56:31.707Z,22720.00
2018-07-28T12:57:30.808Z,21376.00
2018-07-28T12:58:31.907Z,20608.00
2018-07-28T12:59:30.919Z,20512.00
2018-07-28T13:00:30.702Z,21024.00
2018-07-28T13:01:31.846Z,21568.00
2018-07-28T13:02:30.747Z,21824.00
2018-07-28T13:03:29.889Z,21600.00
2018-07-28T13:04:30.814Z,21184.00
2018-07-28T13:05:30.908Z,20992.00
2018-07-28T13:06:30.749Z,20480.00
2018-07-28T13:07:30.678Z,19616.00
2018-07-28T13:08:29.042Z,18592.00
2018-07-28T13:09:31.053Z,17696.00
2018-07-28T13:10:30.687Z,17056.00
2018-07-28T13:11:30.691Z,16512.00
2018-07-28T13:12:30.769Z,16224.00
2018-07-28T13:13:30.802Z,16224.00
2018-07-28T13:14:30.697Z,16640.00
2018-07-28T13:15:30.755Z,17472.00
2018-07-28T13:16:30.731Z,18624.00
2018-07-28T13:17:30.753Z,19616.00
2018-07-28T13:18:30.780Z,20064.00
2018-07-28T13:19:31.224Z,20128.00
2018-07-28T13:20:31.180Z,20352.00
2018-07-28T13:21:31.039Z,20896.00
2018-07-28T13:22:31.662Z,21760.00
2018-07-28T13:23:31.721Z,22624.00
2018-07-28T13:24:31.666Z,23200.00
2018-07-28T13:25:31.683Z,23200.00
2018-07-28T13:26:30.866Z,22912.00
2018-07-28T13:27:40.691Z,21664.00
2018-07-28T13:28:30.681Z,22976.00
2018-07-28T13:29:30.762Z,23264.00
2018-07-28T13:30:30.669Z,23648.00
2018-07-28T13:31:30.703Z,24128.00
2018-07-28T13:32:30.675Z,24736.00
2018-07-28T13:33:30.671Z,25376.00
2018-07-28T13:34:30.676Z,25856.00
2018-07-28T13:35:30.699Z,26016.00
2018-07-28T13:36:31.734Z,25632.00
2018-07-28T13:37:30.721Z,24928.00
2018-07-28T13:38:28.753Z,23840.00
2018-07-28T13:39:30.704Z,22240.00
2018-07-28T13:40:30.181Z,20480.00
2018-07-28T13:41:30.232Z,18816.00
2018-07-28T13:42:31.229Z,17504.00
2018-07-28T13:43:30.185Z,16704.00
2018-07-28T13:44:30.176Z,16288.00
2018-07-28T13:45:35.614Z,16096.00
2018-07-28T13:46:30.169Z,16128.00
2018-07-28T13:47:30.163Z,16384.00
2018-07-28T13:48:28.713Z,16672.00
2018-07-28T13:49:31.338Z,17056.00
2018-07-28T13:50:30.269Z,17536.00
2018-07-28T13:51:30.192Z,18176.00
2018-07-28T13:52:30.290Z,19168.00
2018-07-28T13:53:30.399Z,20704.00
2018-07-28T13:54:30.223Z,22848.00
2018-07-28T13:55:30.361Z,25024.00
2018-07-28T13:56:30.679Z,27072.00
2018-07-28T13:57:28.707Z,28384.00
2018-07-28T13:58:28.986Z,28224.00
2018-07-28T13:59:30.328Z,27552.00
2018-07-28T14:00:30.208Z,27072.00
2018-07-28T14:01:31.403Z,26560.00
2018-07-28T14:02:30.186Z,25760.00
2018-07-28T14:03:30.181Z,24384.00
2018-07-28T14:04:30.303Z,22784.00
2018-07-28T14:05:30.223Z,20928.00
2018-07-28T14:06:30.182Z,19040.00
2018-07-28T14:08:44.795Z,17248.00
2018-07-28T14:09:46.582Z,17632.00
2018-07-28T14:10:47.447Z,18912.00
2018-07-28T14:11:46.742Z,20928.00
2018-07-28T14:12:47.451Z,21984.00
2018-07-28T14:13:46.283Z,22432.00
2018-07-28T14:14:46.465Z,22016.00
2018-07-28T14:15:46.354Z,21344.00
2018-07-28T14:16:46.406Z,21504.00
2018-07-28T14:17:46.374Z,22560.00
2018-07-28T14:18:46.475Z,23744.00
2018-07-28T14:19:51.344Z,24640.00
2018-07-28T14:20:48.297Z,25312.00
2018-07-28T14:22:33.312Z,25856.00
2018-07-28T15:24:21.115Z,12980.00
2018-07-28T15:25:26.001Z,12956.00
2018-07-28T15:26:23.569Z,13040.00
2018-07-28T15:27:22.887Z,13172.00
2018-07-28T15:28:22.957Z,13392.00
2018-07-28T15:29:21.912Z,13756.00
2018-07-28T15:30:22.037Z,14176.00
2018-07-28T15:31:21.951Z,14512.00
2018-07-28T15:32:20.029Z,14792.00
2018-07-28T15:33:25.996Z,15148.00
2018-07-28T15:34:21.540Z,15764.00
2018-07-28T15:35:23.461Z,16608.00
2018-07-28T15:36:23.153Z,17120.00
2018-07-28T15:37:19.947Z,17536.00
2018-07-28T15:39:34.191Z,18272.00
2018-07-28T15:40:34.531Z,18656.00
2018-07-28T15:41:34.683Z,19744.00
2018-07-28T15:42:35.383Z,21376.00
2018-07-28T15:43:41.244Z,22528.00
2018-07-28T15:44:34.100Z,23424.00
2018-07-28T15:49:54.553Z,24160.00
2018-07-28T15:50:56.619Z,22176.00
2018-07-28T15:56:16.418Z,15980.00
2018-07-28T16:05:10.644Z,14972.00
2018-07-28T16:06:16.938Z,13644.00
2018-07-28T16:07:11.333Z,12896.00
2018-07-28T16:08:11.927Z,12576.00
2018-07-28T16:09:11.867Z,12980.00
2018-07-28T16:10:12.041Z,12816.00
2018-07-28T16:11:11.927Z,12372.00
2018-07-28T16:12:12.250Z,11980.00
2018-07-28T17:07:07.008Z,5636.00
2018-07-28T17:08:06.292Z,5604.00
2018-07-28T17:09:06.244Z,5576.00
2018-07-28T17:10:06.397Z,5544.00
2018-07-28T17:11:06.015Z,5532.00
2018-07-28T17:12:07.099Z,5496.00
2018-07-28T17:13:06.127Z,5456.00
2018-07-28T17:14:07.261Z,5432.00
2018-07-28T17:15:06.641Z,5412.00
2018-07-28T17:17:24.925Z,5368.00
2018-07-28T17:18:26.609Z,5372.00
2018-07-28T17:19:26.943Z,5364.00
2018-07-28T17:20:25.552Z,5340.00
2018-07-28T17:22:45.258Z,5280.00
2018-07-28T17:23:48.178Z,5252.00
2018-07-28T17:24:53.841Z,5224.00
2018-07-28T17:25:45.330Z,5164.00
2018-07-28T17:26:45.869Z,5120.00
2018-07-28T17:27:46.873Z,5080.00
2018-07-28T17:28:45.564Z,5064.00
2018-07-28T17:29:45.517Z,5060.00
2018-07-28T17:32:01.404Z,4984.00
2018-07-28T17:33:03.040Z,4904.00
2018-07-28T17:35:24.302Z,4540.00
2018-07-28T17:36:23.592Z,4488.00
2018-07-28T17:37:23.170Z,4444.00
2018-07-28T17:38:23.499Z,4336.00
2018-07-28T17:39:32.728Z,4324.00
2018-07-28T17:40:23.799Z,4336.00
2018-07-28T17:41:23.722Z,4340.00
2018-07-28T17:42:23.579Z,4296.00
2018-07-28T17:43:23.525Z,4136.00
2018-07-28T17:44:23.591Z,3984.00
2018-07-28T17:45:24.528Z,3852.00
2018-07-28T17:46:24.519Z,3836.00
2018-07-28T17:47:24.523Z,3752.00
2018-07-28T17:48:24.510Z,3680.00
2018-07-28T17:49:23.593Z,3636.00
2018-07-28T17:50:24.516Z,3568.00
2018-07-28T17:51:23.610Z,3512.00
2018-07-28T17:52:22.452Z,3504.00
2018-07-28T17:53:24.724Z,3448.00
2018-07-28T17:54:23.612Z,3384.00
2018-07-28T17:55:23.592Z,3256.00
2018-07-28T17:56:23.575Z,3180.00
2018-07-28T17:57:23.565Z,3152.00
2018-07-28T17:58:23.612Z,3136.00
2018-07-28T17:59:23.636Z,3104.00
2018-07-28T18:00:23.543Z,3112.00
2018-07-28T18:01:23.541Z,3140.00
2018-07-28T18:02:23.562Z,3184.00
2018-07-28T18:03:23.604Z,3328.00
2018-07-28T18:04:23.580Z,3520.00
2018-07-28T18:05:21.676Z,3656.00
2018-07-28T18:06:23.610Z,3828.00
2018-07-28T18:07:23.533Z,3932.00
2018-07-28T18:08:24.683Z,4016.00
2018-07-28T18:09:45.702Z,3996.00
2018-07-28T18:10:23.847Z,3848.00
2018-07-28T18:11:24.588Z,3724.00
2018-07-28T18:12:28.464Z,3620.00
2018-07-28T19:57:08.754Z,0.00
2018-07-28T19:58:09.696Z,0.00
2018-07-28T19:59:08.414Z,0.00
2018-07-28T20:00:09.565Z,0.00
2018-07-28T20:01:09.428Z,0.00
2018-07-28T20:02:10.402Z,0.00
2018-07-28T20:03:09.354Z,0.00
2018-07-28T20:04:09.525Z,0.00
2018-07-28T20:05:09.284Z,0.00
